createdAt,value
2022-12-07T00:04:50.846Z,2.42
2022-12-07T00:09:54.323Z,2.43
2022-12-07T00:14:57.896Z,2.51
2022-12-07T00:20:01.897Z,2.49
2022-12-07T00:25:05.873Z,2.49
2022-12-07T00:30:09.396Z,2.48
2022-12-07T00:35:12.830Z,2.46
2022-12-07T00:40:15.892Z,2.48
2022-12-07T00:45:19.513Z,2.56
2022-12-07T00:50:22.913Z,2.54
2022-12-07T00:55:26.186Z,2.55
2022-12-07T01:00:29.741Z,2.55
2022-12-07T01:05:33.111Z,2.51
2022-12-07T01:10:36.702Z,2.55
2022-12-07T01:15:44.964Z,2.55
2022-12-07T01:20:59.357Z,2.49
2022-12-07T01:26:06.975Z,2.48
2022-12-07T01:31:13.300Z,2.42
2022-12-07T01:36:17.062Z,2.42
2022-12-07T01:41:22.695Z,2.37
2022-12-07T01:46:26.330Z,2.39
2022-12-07T01:51:29.884Z,2.44
2022-12-07T01:56:33.741Z,2.45
2022-12-07T02:01:37.227Z,2.38
2022-12-07T02:06:43.250Z,2.40
2022-12-07T02:11:47.703Z,2.43
2022-12-07T02:17:30.434Z,2.38
2022-12-07T02:23:09.799Z,2.42
2022-12-07T02:28:37.181Z,2.36
2022-12-07T02:34:03.217Z,2.34
2022-12-07T02:39:28.427Z,2.39
2022-12-07T02:44:33.538Z,2.44
2022-12-07T02:49:40.261Z,2.42
2022-12-07T02:54:43.769Z,2.37
2022-12-07T02:59:49.073Z,2.32
2022-12-07T03:04:58.692Z,2.29
2022-12-07T03:10:12.027Z,2.25
2022-12-07T03:15:34.822Z,2.24
2022-12-07T03:20:41.037Z,2.27
2022-12-07T03:25:48.917Z,2.22
2022-12-07T03:31:02.814Z,2.25
2022-12-07T03:36:29.050Z,2.25
2022-12-07T03:41:43.530Z,2.14
2022-12-07T03:47:10.696Z,2.12
2022-12-07T03:52:37.847Z,2.08
2022-12-07T03:57:44.942Z,2.07
2022-12-07T04:08:31.016Z,2.01
2022-12-07T04:13:54.660Z,1.94
2022-12-07T04:18:58.640Z,1.90
2022-12-07T04:24:02.404Z,1.86
2022-12-07T04:29:07.911Z,1.93
2022-12-07T04:34:12.918Z,1.91
2022-12-07T04:39:25.799Z,1.87
2022-12-07T04:44:30.195Z,1.90
2022-12-07T04:49:33.960Z,1.89
2022-12-07T04:54:37.493Z,1.84
2022-12-07T04:59:45.343Z,1.87
2022-12-07T05:04:49.752Z,1.86
2022-12-07T05:09:53.601Z,1.89
2022-12-07T05:14:56.982Z,1.91
2022-12-07T05:20:01.365Z,1.94
2022-12-07T05:25:05.690Z,1.92
2022-12-07T05:30:09.798Z,1.95
2022-12-07T05:35:13.474Z,1.99
2022-12-07T05:40:18.259Z,1.94
2022-12-07T05:45:24.990Z,1.95
2022-12-07T05:50:29.766Z,1.97
2022-12-07T05:55:33.396Z,1.96
2022-12-07T06:00:38.650Z,1.97
2022-12-07T06:05:43.137Z,2.07
2022-12-07T06:11:09.210Z,2.08
2022-12-07T06:16:13.597Z,2.10
2022-12-07T06:21:18.946Z,2.20
2022-12-07T06:26:23.034Z,2.25
2022-12-07T06:31:27.470Z,2.26
2022-12-07T06:36:32.213Z,2.29
2022-12-07T06:41:40.623Z,2.37
2022-12-07T06:46:44.597Z,2.39
2022-12-07T06:51:48.692Z,2.36
2022-12-07T06:56:53.047Z,2.41
2022-12-07T07:01:57.340Z,2.41
2022-12-07T07:07:01.154Z,2.37
2022-12-07T07:12:04.699Z,2.41
2022-12-07T07:17:09.288Z,2.45
2022-12-07T07:22:13.887Z,2.45
2022-12-07T07:27:17.618Z,2.48
2022-12-07T07:32:22.952Z,2.49
2022-12-07T07:37:27.129Z,2.49
2022-12-07T07:42:30.776Z,2.50
2022-12-07T07:47:34.659Z,2.49
2022-12-07T07:52:38.463Z,2.47
2022-12-07T07:57:42.486Z,2.41
2022-12-07T08:02:47.594Z,2.36
2022-12-07T08:07:51.630Z,2.36
2022-12-07T08:13:17.178Z,2.37
2022-12-07T08:18:22.097Z,2.41
2022-12-07T08:23:33.571Z,2.51
2022-12-07T08:28:42.296Z,2.58
2022-12-07T08:33:47.845Z,2.61
2022-12-07T08:39:22.979Z,2.69
2022-12-07T08:44:16.517Z,2.67
2022-12-07T08:49:26.186Z,2.65
2022-12-07T08:54:30.230Z,2.69
2022-12-07T08:59:37.521Z,2.62
2022-12-07T09:04:41.694Z,2.57
2022-12-07T09:09:45.437Z,2.54
2022-12-07T09:14:49.106Z,2.52
2022-12-07T09:19:52.958Z,2.53
2022-12-07T09:24:58.736Z,2.60
2022-12-07T09:30:04.916Z,2.64
2022-12-07T09:35:09.177Z,2.56
2022-12-07T09:40:13.707Z,2.50
2022-12-07T09:45:22.894Z,2.44
2022-12-07T09:50:30.242Z,2.43
2022-12-07T09:55:35.178Z,2.46
2022-12-07T10:00:38.413Z,2.55
2022-12-07T10:05:46.862Z,2.59
2022-12-07T10:10:57.573Z,2.54
2022-12-07T10:16:06.991Z,2.54
2022-12-07T10:21:18.989Z,2.51
2022-12-07T10:26:29.908Z,2.46
2022-12-07T10:31:34.245Z,2.53
2022-12-07T10:36:39.991Z,2.55
2022-12-07T10:41:59.128Z,2.55
2022-12-07T10:47:29.655Z,2.60
2022-12-07T10:52:45.215Z,2.57
2022-12-07T10:58:16.661Z,2.59
2022-12-07T11:03:46.662Z,2.60
2022-12-07T11:08:57.283Z,2.45
2022-12-07T11:14:23.177Z,2.36
2022-12-07T11:20:01.470Z,2.33
2022-12-07T11:25:11.387Z,2.23
2022-12-07T11:30:43.875Z,2.26
2022-12-07T11:35:47.613Z,2.34
2022-12-07T11:40:55.831Z,2.39
2022-12-07T11:46:18.268Z,2.43
2022-12-07T11:51:26.751Z,2.52
2022-12-07T11:56:38.307Z,2.61
2022-12-07T12:01:54.708Z,2.64
2022-12-07T12:06:58.466Z,2.69
2022-12-07T12:18:03.254Z,2.71
2022-12-07T12:23:41.521Z,2.80
2022-12-07T12:29:00.275Z,2.87
2022-12-07T12:34:25.989Z,2.84
2022-12-07T12:39:30.067Z,2.85
2022-12-07T12:44:33.718Z,2.78
2022-12-07T12:49:41.596Z,2.74
2022-12-07T12:55:26.220Z,2.68
2022-12-07T13:00:30.680Z,2.62
2022-12-07T13:05:34.850Z,2.57
2022-12-07T13:10:45.766Z,2.53
2022-12-07T13:16:09.012Z,2.47
2022-12-07T13:21:12.427Z,2.51
2022-12-07T13:26:20.838Z,2.44
2022-12-07T13:31:47.728Z,2.39
2022-12-07T13:36:53.233Z,2.38
2022-12-07T13:41:59.219Z,2.36
2022-12-07T13:47:27.547Z,2.26
2022-12-07T13:52:32.664Z,2.23
2022-12-07T13:57:37.589Z,2.25
2022-12-07T14:02:57.635Z,2.23
2022-12-07T14:08:24.437Z,2.30
2022-12-07T14:13:31.957Z,2.35
2022-12-07T14:18:41.448Z,2.31
2022-12-07T14:23:46.787Z,2.29
2022-12-07T14:28:50.852Z,2.33
2022-12-07T14:33:54.443Z,2.27
2022-12-07T14:38:59.470Z,2.23
2022-12-07T14:44:23.032Z,2.26
2022-12-07T14:49:35.550Z,2.24
2022-12-07T14:54:44.057Z,2.19
2022-12-07T14:59:50.768Z,2.19
2022-12-07T15:04:54.530Z,2.16
2022-12-07T15:09:58.277Z,2.15
2022-12-07T15:15:03.460Z,2.19
2022-12-07T15:20:13.243Z,2.22
2022-12-07T15:25:18.414Z,2.16
2022-12-07T15:30:23.043Z,2.16
2022-12-07T15:35:26.883Z,2.17
2022-12-07T15:40:30.749Z,2.09
2022-12-07T15:45:34.691Z,2.05
2022-12-07T15:50:38.728Z,2.00
2022-12-07T15:55:43.649Z,1.91
2022-12-07T16:00:51.423Z,1.88
2022-12-07T16:05:57.584Z,1.89
2022-12-07T16:11:01.412Z,1.85
2022-12-07T16:16:08.708Z,1.75
2022-12-07T16:21:13.681Z,1.72
2022-12-07T16:26:20.252Z,1.70
2022-12-07T16:31:26.739Z,1.63
2022-12-07T16:41:55.174Z,1.68
2022-12-07T16:46:58.612Z,1.63
2022-12-07T16:52:19.889Z,1.65
2022-12-07T16:57:24.273Z,1.73
2022-12-07T17:02:28.258Z,1.75
2022-12-07T17:07:32.503Z,1.72
2022-12-07T17:12:37.093Z,1.74
2022-12-07T17:17:41.786Z,1.64
2022-12-07T17:22:45.694Z,1.56
2022-12-07T17:27:52.379Z,1.61
2022-12-07T17:32:56.341Z,1.58
2022-12-07T17:38:00.002Z,1.50
2022-12-07T17:43:04.039Z,1.46
2022-12-07T17:48:07.755Z,1.35
2022-12-07T17:53:14.217Z,1.30
2022-12-07T17:58:18.890Z,1.27
2022-12-07T18:03:23.341Z,1.18
2022-12-07T18:08:28.412Z,1.16
2022-12-07T18:13:38.343Z,1.11
2022-12-07T18:18:47.644Z,1.02
2022-12-07T18:23:57.998Z,1.01
2022-12-07T18:29:03.109Z,1.00
2022-12-07T18:34:12.554Z,0.92
2022-12-07T18:39:19.178Z,0.90
2022-12-07T18:44:24.372Z,0.86
2022-12-07T18:49:31.066Z,0.78
2022-12-07T18:54:35.485Z,0.75
2022-12-07T18:59:47.975Z,0.68
2022-12-07T19:04:52.737Z,0.61
2022-12-07T19:09:56.835Z,0.57
2022-12-07T19:15:01.140Z,0.61
2022-12-07T19:20:08.156Z,0.59
2022-12-07T19:25:12.494Z,0.52
2022-12-07T19:30:18.206Z,0.53
2022-12-07T19:35:21.567Z,0.54
2022-12-07T19:40:25.500Z,0.54
2022-12-07T19:45:31.050Z,0.56
2022-12-07T19:50:34.889Z,0.57
2022-12-07T19:55:44.100Z,0.59
2022-12-07T20:00:49.996Z,0.57
2022-12-07T20:05:53.860Z,0.55
2022-12-07T20:10:59.015Z,0.61
2022-12-07T20:16:19.506Z,0.59
2022-12-07T20:21:24.940Z,0.54
2022-12-07T20:26:28.924Z,0.52
2022-12-07T20:31:32.614Z,0.49
2022-12-07T20:36:36.982Z,0.45
2022-12-07T20:41:59.164Z,0.45
2022-12-07T20:47:03.687Z,0.54
2022-12-07T20:52:07.287Z,0.64
2022-12-07T20:57:10.753Z,0.68
2022-12-07T21:02:15.289Z,0.75
2022-12-07T21:07:20.223Z,0.84
2022-12-07T21:12:24.464Z,0.82
2022-12-07T21:17:28.888Z,0.63
2022-12-07T21:22:32.988Z,0.45
2022-12-07T21:27:36.867Z,0.39
2022-12-07T21:32:41.774Z,0.39
2022-12-07T21:37:45.840Z,0.39
2022-12-07T21:42:54.008Z,0.40
2022-12-07T21:47:57.485Z,0.45
2022-12-07T21:53:04.930Z,0.41
2022-12-07T21:58:12.698Z,0.29
2022-12-07T22:03:16.177Z,0.27
2022-12-07T22:08:20.807Z,0.29
2022-12-07T22:13:44.577Z,0.27
2022-12-07T22:18:48.092Z,0.29
2022-12-07T22:23:51.828Z,0.36
2022-12-07T22:28:55.290Z,0.44
2022-12-07T22:33:58.879Z,0.46
2022-12-07T22:39:02.310Z,0.47
2022-12-07T22:44:10.453Z,0.52
2022-12-07T22:49:14.015Z,0.50
2022-12-07T22:54:17.865Z,0.47
2022-12-07T22:59:21.228Z,0.47
2022-12-07T23:04:25.197Z,0.51
2022-12-07T23:09:28.788Z,0.53
2022-12-07T23:14:35.072Z,0.54
2022-12-07T23:19:38.549Z,0.58
2022-12-07T23:24:42.794Z,0.63
2022-12-07T23:29:46.797Z,0.55
2022-12-07T23:34:50.686Z,0.50
2022-12-07T23:39:55.178Z,0.51
2022-12-07T23:44:59.565Z,0.50
2022-12-07T23:50:04.602Z,0.48
2022-12-07T23:55:08.695Z,0.44
